Time,TemperatureF,DewpointF,PressureIn,WindDirection,WindDirectionDegrees,WindSpeedMPH,WindSpeedGustMPH,Humidity,HourlyPrecipIn,Conditions,Clouds,dailyrainin,SoftwareType,DateUTC
2013-02-12 00:00:00,47.8,31.9,29.69,West,259,17.3,17.3,54,0.00,RA,,0.00,WeatherDisplay:10.37,2013-02-11 23:00:00,
2013-02-12 00:05:00,47.8,31.9,29.69,NW,326,13.0,13.0,54,0.00,RA,,0.00,WeatherDisplay:10.37,2013-02-11 23:05:00,
2013-02-12 00:10:00,47.6,32.2,29.68,West,280,12.7,12.7,55,0.00,CLR,,0.00,WeatherDisplay:10.37,2013-02-11 23:10:00,
2013-02-12 00:15:00,47.3,31.9,29.68,West,268,19.6,19.6,55,0.00,CLR,,0.00,WeatherDisplay:10.37,2013-02-11 23:15:00,
2013-02-12 00:20:00,47.6,31.8,29.68,NW,312,21.9,21.9,54,0.00,CLR,,0.00,WeatherDisplay:10.37,2013-02-11 23:20:00,
2013-02-12 00:25:00,47.8,31.5,29.68,West,278,20.7,20.7,53,0.00,CLR,,0.00,WeatherDisplay:10.37,2013-02-11 23:25:00,
2013-02-12 00:30:00,47.9,31.6,29.68,West,278,19.6,19.6,53,0.00,CLR,,0.00,WeatherDisplay:10.37,2013-02-11 23:30:00,
2013-02-12 00:35:00,47.9,31.1,29.69,WNW,297,18.4,18.4,52,0.00,CLR,,0.00,WeatherDisplay:10.37,2013-02-11 23:35:00,
2013-02-12 00:40:00,47.7,30.9,29.69,WNW,282,17.0,17.0,52,0.00,CLR,,0.00,WeatherDisplay:10.37,2013-02-11 23:40:00,
2013-02-12 00:45:00,47.8,30.5,29.68,West,277,19.0,19.0,51,0.00,CLR,,0.00,WeatherDisplay:10.37,2013-02-11 23:45:00,
2013-02-12 00:50:00,47.9,30.6,29.68,WNW,284,20.7,20.7,51,0.00,CLR,,0.00,WeatherDisplay:10.37,2013-02-11 23:50:00,
2013-02-12 00:55:00,48.3,30.0,29.68,WNW,286,26.5,26.5,49,0.00,CLR,,0.00,WeatherDisplay:10.37,2013-02-11 23:55:00,
2013-02-12 01:00:00,48.4,30.1,29.68,WNW,296,20.7,20.7,49,0.00,CLR,,0.00,WeatherDisplay:10.37,2013-02-12 00:00:00,
2013-02-12 01:05:00,48.2,29.9,29.68,West,266,19.6,19.6,49,0.00,CLR,,0.00,WeatherDisplay:10.37,2013-02-12 00:05:00,
2013-02-12 01:10:00,48.4,30.1,29.68,NW,304,20.7,20.7,49,0.00,CLR,,0.00,WeatherDisplay:10.37,2013-02-12 00:10:00,
2013-02-12 01:15:00,48.7,30.4,29.68,West,268,24.2,24.2,49,0.00,CLR,,0.00,WeatherDisplay:10.37,2013-02-12 00:15:00,
2013-02-12 01:20:00,48.7,30.4,29.68,NW,305,19.6,19.6,49,0.00,CLR,,0.00,WeatherDisplay:10.37,2013-02-12 00:20:00,
2013-02-12 01:25:00,48.7,30.4,29.68,NW,314,19.6,19.6,49,0.00,CLR,,0.00,WeatherDisplay:10.37,2013-02-12 00:25:00,
2013-02-12 01:30:00,48.5,30.7,29.68,WNW,297,19.6,19.6,50,0.00,CLR,,0.00,WeatherDisplay:10.37,2013-02-12 00:30:00,
2013-02-12 01:35:00,48.3,30.5,29.68,NNE,30,15.0,15.0,50,0.00,CLR,,0.00,WeatherDisplay:10.37,2013-02-12 00:35:00,
2013-02-12 01:40:00,48.2,30.9,29.67,WNW,293,18.0,18.0,51,0.00,CLR,,0.00,WeatherDisplay:10.37,2013-02-12 00:40:00,
2013-02-12 01:45:00,48.2,30.9,29.67,West,275,15.0,15.0,51,0.00,CLR,,0.00,WeatherDisplay:10.37,2013-02-12 00:45:00,
2013-02-12 01:50:00,48.0,31.2,29.67,West,273,13.0,13.0,52,0.00,CLR,,0.00,WeatherDisplay:10.37,2013-02-12 00:50:00,
2013-02-12 01:55:00,47.6,31.3,29.67,West,272,11.5,11.5,53,0.00,CLR,,0.00,WeatherDisplay:10.37,2013-02-12 00:55:00,
2013-02-12 02:00:00,47.4,31.6,29.67,West,260,11.5,11.5,54,0.00,CLR,,0.00,WeatherDisplay:10.37,2013-02-12 01:00:00,
2013-02-12 02:05:00,47.6,32.2,29.67,WNW,301,12.7,12.7,55,0.00,CLR,,0.00,WeatherDisplay:10.37,2013-02-12 01:05:00,
2013-02-12 02:10:00,47.5,32.1,29.67,West,259,13.8,13.8,55,0.00,CLR,,0.00,WeatherDisplay:10.37,2013-02-12 01:10:00,
2013-02-12 02:15:00,47.5,32.6,29.67,West,272,18.0,18.0,56,0.00,CLR,,0.00,WeatherDisplay:10.37,2013-02-12 01:15:00,
2013-02-12 02:20:00,47.4,33.4,29.67,WSW,251,16.1,16.1,58,0.00,CLR,,0.00,WeatherDisplay:10.37,2013-02-12 01:20:00,
2013-02-12 02:25:00,47.5,34.7,29.67,WSW,253,19.6,19.6,61,0.00,CLR,,0.00,WeatherDisplay:10.37,2013-02-12 01:25:00,
2013-02-12 02:30:00,47.4,34.6,29.67,WSW,245,19.6,19.6,61,0.00,CLR,,0.00,WeatherDisplay:10.37,2013-02-12 01:30:00,
2013-02-12 02:35:00,47.8,35.0,29.67,West,270,16.1,16.1,61,0.00,CLR,,0.00,WeatherDisplay:10.37,2013-02-12 01:35:00,
2013-02-12 02:40:00,47.9,34.7,29.67,WNW,292,20.7,20.7,60,0.00,CLR,,0.00,WeatherDisplay:10.37,2013-02-12 01:40:00,
2013-02-12 02:45:00,48.2,34.5,29.67,WNW,296,17.3,17.3,59,0.00,CLR,,0.00,WeatherDisplay:10.37,2013-02-12 01:45:00,
2013-02-12 02:50:00,48.1,34.4,29.67,WSW,256,17.3,17.3,59,0.00,CLR,,0.00,WeatherDisplay:10.37,2013-02-12 01:50:00,
2013-02-12 02:55:00,48.1,34.4,29.67,NNE,23,16.1,16.1,59,0.00,CLR,,0.00,WeatherDisplay:10.37,2013-02-12 01:55:00,
2013-02-12 03:00:00,48.1,34.0,29.67,West,264,16.1,16.1,58,0.00,CLR,,0.00,WeatherDisplay:10.37,2013-02-12 02:00:00,
2013-02-12 03:05:00,48.0,34.3,29.67,West,259,15.0,15.0,59,0.00,CLR,,0.00,WeatherDisplay:10.37,2013-02-12 02:05:00,
2013-02-12 03:10:00,47.9,34.3,29.66,West,280,16.1,16.1,59,0.00,CLR,,0.00,WeatherDisplay:10.37,2013-02-12 02:10:00,
2013-02-12 03:15:00,47.7,34.5,29.66,WNW,288,16.1,16.1,60,0.00,CLR,,0.00,WeatherDisplay:10.37,2013-02-12 02:15:00,
2013-02-12 03:20:00,47.5,34.7,29.66,West,280,16.1,16.1,61,0.00,CLR,,0.00,WeatherDisplay:10.37,2013-02-12 02:20:00,
2013-02-12 03:25:00,47.4,35.0,29.65,West,265,16.0,16.0,62,0.00,CLR,,0.00,WeatherDisplay:10.37,2013-02-12 02:25:00,
2013-02-12 03:30:00,47.7,35.3,29.65,WNW,284,18.4,18.4,62,0.00,CLR,,0.00,WeatherDisplay:10.37,2013-02-12 02:30:00,
2013-02-12 03:35:00,47.9,35.5,29.65,West,266,17.3,17.3,62,0.00,CLR,,0.00,WeatherDisplay:10.37,2013-02-12 02:35:00,
2013-02-12 03:40:00,48.3,35.5,29.65,WNW,289,19.6,19.6,61,0.00,CLR,,0.00,WeatherDisplay:10.37,2013-02-12 02:40:00,
2013-02-12 03:45:00,48.4,35.1,29.65,West,271,17.3,17.3,60,0.00,CLR,,0.00,WeatherDisplay:10.37,2013-02-12 02:45:00,
2013-02-12 03:50:00,48.4,35.6,29.65,West,266,19.6,19.6,61,0.00,CLR,,0.00,WeatherDisplay:10.37,2013-02-12 02:50:00,
2013-02-12 03:55:00,48.2,35.4,29.64,West,275,15.0,15.0,61,0.00,CLR,,0.00,WeatherDisplay:10.37,2013-02-12 02:55:00,
2013-02-12 04:00:00,48.1,35.3,29.64,NE,38,13.8,13.8,61,0.00,CLR,,0.00,WeatherDisplay:10.37,2013-02-12 03:00:00,
2013-02-12 04:05:00,48.2,35.4,29.64,West,264,18.0,18.0,61,0.00,CLR,,0.00,WeatherDisplay:10.37,2013-02-12 03:05:00,
2013-02-12 04:10:00,48.3,35.9,29.63,West,278,20.7,20.7,62,0.00,CLR,,0.00,WeatherDisplay:10.37,2013-02-12 03:10:00,
2013-02-12 04:15:00,48.4,36.0,29.63,West,266,20.7,20.7,62,0.00,CLR,,0.00,WeatherDisplay:10.37,2013-02-12 03:15:00,
2013-02-12 04:20:00,48.6,35.7,29.63,WNW,282,22.0,22.0,61,0.00,CLR,,0.00,WeatherDisplay:10.37,2013-02-12 03:20:00,
2013-02-12 04:25:00,48.9,36.0,29.63,West,280,19.6,19.6,61,0.00,CLR,,0.00,WeatherDisplay:10.37,2013-02-12 03:25:00,
2013-02-12 04:30:00,48.9,36.0,29.63,WSW,257,20.7,20.7,61,0.00,CLR,,0.00,WeatherDisplay:10.37,2013-02-12 03:30:00,
2013-02-12 04:35:00,48.9,36.0,29.62,West,264,18.4,18.4,61,0.00,CLR,,0.00,WeatherDisplay:10.37,2013-02-12 03:35:00,
2013-02-12 04:40:00,48.9,36.0,29.62,SSE,147,20.7,20.7,61,0.00,CLR,,0.00,WeatherDisplay:10.37,2013-02-12 03:40:00,
2013-02-12 04:45:00,48.8,35.9,29.62,WNW,299,19.6,19.6,61,0.00,CLR,,0.00,WeatherDisplay:10.37,2013-02-12 03:45:00,
2013-02-12 04:50:00,48.8,35.9,29.62,West,272,17.3,17.3,61,0.00,CLR,,0.00,WeatherDisplay:10.37,2013-02-12 03:50:00,
2013-02-12 04:55:00,48.8,35.9,29.62,WSW,250,16.1,16.1,61,0.00,CLR,,0.00,WeatherDisplay:10.37,2013-02-12 03:55:00,
2013-02-12 05:00:00,48.8,36.4,29.62,WSW,245,17.3,17.3,62,0.00,CLR,,0.00,WeatherDisplay:10.37,2013-02-12 04:00:00,
2013-02-12 05:05:00,48.6,36.2,29.61,West,272,17.3,17.3,62,0.00,CLR,,0.00,WeatherDisplay:10.37,2013-02-12 04:05:00,
2013-02-12 05:10:00,48.3,35.9,29.61,NW,310,11.0,11.0,62,0.00,CLR,,0.00,WeatherDisplay:10.37,2013-02-12 04:10:00,
2013-02-12 05:15:00,47.9,35.9,29.61,WSW,241,16.1,16.1,63,0.00,CLR,,0.00,WeatherDisplay:10.37,2013-02-12 04:15:00,
2013-02-12 05:20:00,48.2,35.4,29.61,WNW,295,13.8,13.8,61,0.00,CLR,,0.00,WeatherDisplay:10.37,2013-02-12 04:20:00,
2013-02-12 05:25:00,48.1,34.9,29.61,West,259,15.0,15.0,60,0.00,CLR,,0.00,WeatherDisplay:10.37,2013-02-12 04:25:00,
2013-02-12 05:30:00,48.0,34.8,29.61,WNW,287,16.0,16.0,60,0.00,CLR,,0.00,WeatherDisplay:10.37,2013-02-12 04:30:00,
2013-02-12 05:35:00,48.1,34.0,29.61,NW,326,16.1,16.1,58,0.00,CLR,,0.00,WeatherDisplay:10.37,2013-02-12 04:35:00,
2013-02-12 05:40:00,48.3,33.8,29.61,WNW,299,17.3,17.3,57,0.00,CLR,,0.00,WeatherDisplay:10.37,2013-02-12 04:40:00,
2013-02-12 05:45:00,48.8,32.9,29.61,West,260,20.7,20.7,54,0.00,CLR,,0.00,WeatherDisplay:10.37,2013-02-12 04:45:00,
2013-02-12 05:50:00,48.9,32.5,29.61,West,266,19.6,19.6,53,0.00,CLR,,0.00,WeatherDisplay:10.37,2013-02-12 04:50:00,
2013-02-12 05:55:00,49.3,32.4,29.61,West,276,16.1,16.1,52,0.00,CLR,,0.00,WeatherDisplay:10.37,2013-02-12 04:55:00,
2013-02-12 06:00:00,49.4,32.0,29.61,SW,233,26.5,26.5,51,0.00,CLR,,0.00,WeatherDisplay:10.37,2013-02-12 05:00:00,
2013-02-12 06:05:00,49.6,31.2,29.61,North,350,24.2,24.2,49,0.00,CLR,,0.00,WeatherDisplay:10.37,2013-02-12 05:05:00,
2013-02-12 06:10:00,49.5,31.1,29.61,ESE,108,23.0,23.0,49,0.00,CLR,,0.00,WeatherDisplay:10.37,2013-02-12 05:10:00,
2013-02-12 06:15:00,49.6,31.2,29.62,NW,313,19.6,19.6,49,0.00,CLR,,0.00,WeatherDisplay:10.37,2013-02-12 05:15:00,
2013-02-12 06:20:00,49.6,31.2,29.62,WNW,295,17.3,17.3,49,0.00,CLR,,0.00,WeatherDisplay:10.37,2013-02-12 05:20:00,
2013-02-12 06:25:00,49.5,30.6,29.62,NW,318,16.1,16.1,48,0.00,CLR,,0.00,WeatherDisplay:10.37,2013-02-12 05:25:00,
2013-02-12 06:30:00,49.4,31.0,29.62,WNW,291,19.6,19.6,49,0.00,CLR,,0.00,WeatherDisplay:10.37,2013-02-12 05:30:00,
2013-02-12 06:35:00,49.3,30.4,29.62,West,277,19.6,19.6,48,0.00,CLR,,0.00,WeatherDisplay:10.37,2013-02-12 05:35:00,
2013-02-12 06:40:00,49.3,30.4,29.62,WNW,293,21.9,21.9,48,0.00,CLR,,0.00,WeatherDisplay:10.37,2013-02-12 05:40:00,
2013-02-12 06:45:00,49.3,30.4,29.62,West,280,19.6,19.6,48,0.00,CLR,,0.00,WeatherDisplay:10.37,2013-02-12 05:45:00,
2013-02-12 06:50:00,49.1,30.7,29.62,SW,222,17.3,17.3,49,0.00,CLR,,0.00,WeatherDisplay:10.37,2013-02-12 05:50:00,
2013-02-12 06:55:00,48.9,31.1,29.62,WNW,289,19.6,19.6,50,0.00,CLR,,0.00,WeatherDisplay:10.37,2013-02-12 05:55:00,
2013-02-12 07:00:00,48.9,31.1,29.62,NNW,330,24.0,24.0,50,0.00,CLR,,0.00,WeatherDisplay:10.37,2013-02-12 06:00:00,
2013-02-12 07:05:00,48.9,31.1,29.63,WNW,293,18.4,18.4,50,0.00,CLR,,0.00,WeatherDisplay:10.37,2013-02-12 06:05:00,
2013-02-12 07:10:00,48.9,31.1,29.62,WNW,286,9.2,9.2,50,0.00,CLR,,0.00,WeatherDisplay:10.37,2013-02-12 06:10:00,
2013-02-12 07:15:00,48.8,31.5,29.62,WNW,287,15.0,15.0,51,0.00,CLR,,0.00,WeatherDisplay:10.37,2013-02-12 06:15:00,
2013-02-12 07:20:00,48.6,31.8,29.63,WNW,286,12.7,12.7,52,0.00,CLR,,0.00,WeatherDisplay:10.37,2013-02-12 06:20:00,
2013-02-12 07:25:00,48.6,31.8,29.63,West,280,23.0,23.0,52,0.00,CLR,,0.00,WeatherDisplay:10.37,2013-02-12 06:25:00,
2013-02-12 07:30:00,48.5,31.2,29.63,WSW,249,19.6,19.6,51,0.00,CLR,,0.00,WeatherDisplay:10.37,2013-02-12 06:30:00,
2013-02-12 07:35:00,48.5,30.7,29.64,NW,309,15.0,15.0,50,0.00,CLR,,0.00,WeatherDisplay:10.37,2013-02-12 06:35:00,
2013-02-12 07:40:00,48.4,30.6,29.63,SW,234,26.5,26.5,50,0.00,CLR,,0.00,WeatherDisplay:10.37,2013-02-12 06:40:00,
2013-02-12 07:45:00,48.4,30.6,29.63,WNW,295,18.4,18.4,50,0.00,CLR,,0.00,WeatherDisplay:10.37,2013-02-12 06:45:00,
2013-02-12 07:50:00,48.4,31.1,29.63,SSW,197,12.7,12.7,51,0.00,CLR,,0.00,WeatherDisplay:10.37,2013-02-12 06:50:00,
2013-02-12 07:55:00,48.1,31.3,29.63,NW,322,13.0,13.0,52,0.00,CLR,,0.00,WeatherDisplay:10.37,2013-02-12 06:55:00,
2013-02-12 08:00:00,48.0,31.2,29.64,West,268,19.6,19.6,52,0.00,CLR,,0.00,WeatherDisplay:10.37,2013-02-12 07:00:00,
2013-02-12 08:05:00,47.6,32.7,29.64,WSW,251,24.2,24.2,56,0.00,CLR,,0.00,WeatherDisplay:10.37,2013-02-12 07:05:00,
2013-02-12 08:10:00,46.8,34.5,29.64,West,281,20.7,20.7,62,0.00,CLR,,0.00,WeatherDisplay:10.37,2013-02-12 07:10:00,
2013-02-12 08:15:00,46.3,34.8,29.64,NNE,16,17.3,17.3,64,0.00,CLR,,0.00,WeatherDisplay:10.37,2013-02-12 07:15:00,
2013-02-12 08:20:00,46.2,34.7,29.64,West,279,17.3,17.3,64,0.00,CLR,,0.00,WeatherDisplay:10.37,2013-02-12 07:20:00,
2013-02-12 08:25:00,46.6,35.1,29.64,West,266,16.1,16.1,64,0.00,CLR,,0.00,WeatherDisplay:10.37,2013-02-12 07:25:00,
2013-02-12 08:30:00,46.5,35.4,29.64,West,260,16.1,16.1,65,0.00,CLR,,0.00,WeatherDisplay:10.37,2013-02-12 07:30:00,
2013-02-12 08:35:00,46.2,35.5,29.64,WNW,303,18.4,18.4,66,0.00,CLR,,0.00,WeatherDisplay:10.37,2013-02-12 07:35:00,
2013-02-12 08:40:00,46.3,35.9,29.64,West,274,17.0,17.0,67,0.00,CLR,,0.00,WeatherDisplay:10.37,2013-02-12 07:40:00,
2013-02-12 08:45:00,46.5,35.7,29.64,West,278,13.8,13.8,66,0.00,CLR,,0.00,WeatherDisplay:10.37,2013-02-12 07:45:00,
2013-02-12 08:50:00,47.0,35.0,29.65,WSW,257,19.6,19.6,63,0.00,CLR,,0.00,WeatherDisplay:10.37,2013-02-12 07:50:00,
2013-02-12 09:05:00,48.2,33.2,29.65,West,270,28.0,28.0,56,0.00,CLR,,0.00,WeatherDisplay:10.37,2013-02-12 08:05:00,
2013-02-12 09:10:00,48.1,33.6,29.65,WSW,253,32.2,32.2,57,0.00,CLR,,0.00,WeatherDisplay:10.37,2013-02-12 08:10:00,
2013-02-12 09:15:00,47.1,35.5,29.65,SSE,164,31.1,31.1,64,0.00,CLR,,0.00,WeatherDisplay:10.37,2013-02-12 08:15:00,
2013-02-12 09:20:00,46.1,36.1,29.65,West,268,31.1,31.1,68,0.00,CLR,,0.00,WeatherDisplay:10.37,2013-02-12 08:20:00,
2013-02-12 09:25:00,45.5,36.3,29.65,West,277,21.9,21.9,70,0.00,CLR,,0.00,WeatherDisplay:10.37,2013-02-12 08:25:00,
2013-02-12 09:30:00,45.5,36.6,29.66,West,279,18.4,18.4,71,0.00,CLR,,0.00,WeatherDisplay:10.37,2013-02-12 08:30:00,
2013-02-12 09:35:00,45.6,36.4,29.66,West,277,23.0,23.0,70,0.00,CLR,,0.00,WeatherDisplay:10.37,2013-02-12 08:35:00,
2013-02-12 09:40:00,45.7,36.5,29.66,West,264,20.7,20.7,70,0.00,CLR,,0.00,WeatherDisplay:10.37,2013-02-12 08:40:00,
2013-02-12 09:45:00,45.9,36.7,29.66,West,260,19.6,19.6,70,0.00,CLR,,0.00,WeatherDisplay:10.37,2013-02-12 08:45:00,
2013-02-12 09:50:00,46.2,37.0,29.66,WNW,295,19.6,19.6,70,0.00,CLR,,0.00,WeatherDisplay:10.37,2013-02-12 08:50:00,
2013-02-12 09:55:00,46.4,36.8,29.66,West,271,19.6,19.6,69,0.00,CLR,,0.00,WeatherDisplay:10.37,2013-02-12 08:55:00,
2013-02-12 10:00:00,46.5,36.5,29.66,WNW,283,20.7,20.7,68,0.00,CLR,,0.00,WeatherDisplay:10.37,2013-02-12 09:00:00,
2013-02-12 10:05:00,46.6,36.6,29.66,West,275,13.8,13.8,68,0.00,CLR,,0.00,WeatherDisplay:10.37,2013-02-12 09:05:00,
2013-02-12 10:10:00,47.0,36.6,29.66,West,276,19.6,19.6,67,0.00,CLR,,0.00,WeatherDisplay:10.37,2013-02-12 09:10:00,
2013-02-12 10:15:00,47.5,36.7,29.66,WNW,287,24.2,24.2,66,0.00,CLR,,0.00,WeatherDisplay:10.37,2013-02-12 09:15:00,
2013-02-12 10:20:00,48.0,37.2,29.67,West,274,21.9,21.9,66,0.00,CLR,,0.00,WeatherDisplay:10.37,2013-02-12 09:20:00,
2013-02-12 10:25:00,47.9,37.1,29.67,NNW,332,24.0,24.0,66,0.00,CLR,,0.00,WeatherDisplay:10.37,2013-02-12 09:25:00,
2013-02-12 10:30:00,47.1,37.4,29.68,NNW,335,26.0,26.0,69,0.00,CLR,,0.00,WeatherDisplay:10.37,2013-02-12 09:30:00,
2013-02-12 10:35:00,45.9,37.7,29.68,West,266,26.0,26.0,73,0.00,CLR,,0.00,WeatherDisplay:10.37,2013-02-12 09:35:00,
2013-02-12 10:40:00,45.6,37.8,29.68,SW,220,18.4,18.4,74,0.00,CLR,,0.00,WeatherDisplay:10.37,2013-02-12 09:40:00,
2013-02-12 10:45:00,45.4,37.9,29.69,WNW,303,17.3,17.3,75,0.00,CLR,,0.00,WeatherDisplay:10.37,2013-02-12 09:45:00,
2013-02-12 10:50:00,45.3,38.2,29.70,West,278,11.5,11.5,76,0.00,CLR,,0.00,WeatherDisplay:10.37,2013-02-12 09:50:00,
2013-02-12 10:55:00,45.5,38.4,29.70,NW,311,13.0,13.0,76,0.00,CLR,,0.00,WeatherDisplay:10.37,2013-02-12 09:55:00,
2013-02-12 11:00:00,45.5,38.0,29.70,West,270,12.7,12.7,75,0.00,CLR,,0.00,WeatherDisplay:10.37,2013-02-12 10:00:00,
2013-02-12 11:05:00,45.7,38.6,29.71,North,11,4.6,4.6,76,0.00,CLR,,0.00,WeatherDisplay:10.37,2013-02-12 10:05:00,
2013-02-12 11:10:00,45.9,38.1,29.71,NNW,338,12.7,12.7,74,0.00,CLR,,0.00,WeatherDisplay:10.37,2013-02-12 10:10:00,
2013-02-12 11:15:00,45.7,37.9,29.71,NNW,344,12.7,12.7,74,0.00,CLR,,0.00,WeatherDisplay:10.37,2013-02-12 10:15:00,
2013-02-12 11:20:00,45.3,37.8,29.72,NNW,332,15.0,15.0,75,0.00,CLR,,0.00,WeatherDisplay:10.37,2013-02-12 10:20:00,
2013-02-12 11:25:00,45.5,38.0,29.72,NNW,339,13.8,13.8,75,0.00,CLR,,0.00,WeatherDisplay:10.37,2013-02-12 10:25:00,
2013-02-12 11:30:00,45.9,38.4,29.72,NW,324,19.6,19.6,75,0.00,CLR,,0.00,WeatherDisplay:10.37,2013-02-12 10:30:00,
2013-02-12 11:35:00,46.3,38.5,29.72,NNW,343,19.6,19.6,74,0.00,CLR,,0.00,WeatherDisplay:10.37,2013-02-12 10:35:00,
2013-02-12 11:40:00,46.1,38.3,29.72,NW,311,26.5,26.5,74,0.00,CLR,,0.00,WeatherDisplay:10.37,2013-02-12 10:40:00,
2013-02-12 11:45:00,45.5,38.4,29.72,North,354,20.0,20.0,76,0.00,CLR,,0.00,WeatherDisplay:10.37,2013-02-12 10:45:00,
2013-02-12 11:50:00,45.5,38.7,29.72,NNW,336,17.3,17.3,77,0.00,CLR,,0.00,WeatherDisplay:10.37,2013-02-12 10:50:00,
2013-02-12 11:55:00,45.9,38.8,29.72,NNW,328,20.7,20.7,76,0.01,RA,,0.01,WeatherDisplay:10.37,2013-02-12 10:55:00,
2013-02-12 12:00:00,46.4,38.9,29.72,North,349,17.3,17.3,75,0.01,RA,,0.01,WeatherDisplay:10.37,2013-02-12 11:00:00,
2013-02-12 12:05:00,47.0,39.1,29.73,North,354,19.6,19.6,74,0.01,CLR,,0.01,WeatherDisplay:10.37,2013-02-12 11:05:00,
2013-02-12 12:10:00,44.8,39.3,29.74,NNW,337,13.8,13.8,81,0.03,RA,,0.03,WeatherDisplay:10.37,2013-02-12 11:10:00,
2013-02-12 12:15:00,43.4,39.5,29.74,North,4,16.1,16.1,86,0.04,RA,,0.04,WeatherDisplay:10.37,2013-02-12 11:15:00,
2013-02-12 12:20:00,44.0,40.4,29.74,NNW,340,19.6,19.6,87,0.04,RA,,0.04,WeatherDisplay:10.37,2013-02-12 11:20:00,
2013-02-12 12:25:00,44.0,38.5,29.75,NW,326,24.2,24.2,81,0.05,RA,,0.05,WeatherDisplay:10.37,2013-02-12 11:25:00,
2013-02-12 12:30:00,43.8,39.0,29.75,NW,325,24.2,24.2,83,0.05,RA,,0.05,WeatherDisplay:10.37,2013-02-12 11:30:00,
2013-02-12 12:35:00,43.8,38.7,29.75,North,354,26.5,26.5,82,0.05,CLR,,0.05,WeatherDisplay:10.37,2013-02-12 11:35:00,
2013-02-12 12:40:00,43.9,38.8,29.75,NNW,346,16.1,16.1,82,0.05,CLR,,0.05,WeatherDisplay:10.37,2013-02-12 11:40:00,
2013-02-12 12:45:00,44.0,38.5,29.75,North,354,17.3,17.3,81,0.05,CLR,,0.05,WeatherDisplay:10.37,2013-02-12 11:45:00,
2013-02-12 12:50:00,44.1,38.6,29.75,North,354,12.7,12.7,81,0.05,CLR,,0.05,WeatherDisplay:10.37,2013-02-12 11:50:00,
2013-02-12 12:55:00,44.4,39.2,29.76,NW,326,8.1,8.1,82,0.04,CLR,,0.05,WeatherDisplay:10.37,2013-02-12 11:55:00,
2013-02-12 13:00:00,44.8,39.0,29.76,NNW,341,15.0,15.0,80,0.04,CLR,,0.05,WeatherDisplay:10.37,2013-02-12 12:00:00,
2013-02-12 13:05:00,45.5,39.4,29.76,NW,314,12.7,12.7,79,0.04,CLR,,0.05,WeatherDisplay:10.37,2013-02-12 12:05:00,
2013-02-12 13:10:00,45.7,38.6,29.76,NW,321,19.6,19.6,76,0.02,CLR,,0.05,WeatherDisplay:10.37,2013-02-12 12:10:00,
2013-02-12 13:15:00,46.0,38.9,29.76,NW,321,12.7,12.7,76,0.01,CLR,,0.05,WeatherDisplay:10.37,2013-02-12 12:15:00,
2013-02-12 13:20:00,46.4,38.9,29.76,North,350,16.1,16.1,75,0.01,CLR,,0.05,WeatherDisplay:10.37,2013-02-12 12:20:00,
2013-02-12 13:25:00,46.9,38.3,29.77,NNW,334,16.0,16.0,72,0.00,CLR,,0.05,WeatherDisplay:10.37,2013-02-12 12:25:00,
2013-02-12 13:30:00,47.1,38.9,29.76,NNE,25,15.0,15.0,73,0.00,CLR,,0.05,WeatherDisplay:10.37,2013-02-12 12:30:00,
2013-02-12 13:35:00,47.8,39.2,29.76,NNW,334,13.8,13.8,72,0.00,CLR,,0.05,WeatherDisplay:10.37,2013-02-12 12:35:00,
2013-02-12 13:40:00,47.9,38.6,29.76,NW,307,28.0,28.0,70,0.00,CLR,,0.05,WeatherDisplay:10.37,2013-02-12 12:40:00,
2013-02-12 13:45:00,47.8,38.8,29.76,NNW,330,23.0,23.0,71,0.00,CLR,,0.05,WeatherDisplay:10.37,2013-02-12 12:45:00,
2013-02-12 13:50:00,48.3,37.8,29.77,NW,304,21.9,21.9,67,0.00,CLR,,0.05,WeatherDisplay:10.37,2013-02-12 12:50:00,
2013-02-12 13:55:00,48.8,39.1,29.77,NW,321,20.7,20.7,69,0.00,CLR,,0.05,WeatherDisplay:10.37,2013-02-12 12:55:00,
2013-02-12 14:00:00,49.2,38.3,29.77,NNE,13,21.9,21.9,66,0.00,CLR,,0.05,WeatherDisplay:10.37,2013-02-12 13:00:00,
2013-02-12 14:05:00,49.1,37.4,29.77,NNW,328,26.5,26.5,64,0.00,CLR,,0.05,WeatherDisplay:10.37,2013-02-12 13:05:00,
2013-02-12 14:10:00,49.1,37.4,29.77,North,359,21.9,21.9,64,0.00,CLR,,0.05,WeatherDisplay:10.37,2013-02-12 13:10:00,
2013-02-12 14:15:00,49.6,37.5,29.78,NW,308,16.1,16.1,63,0.00,CLR,,0.05,WeatherDisplay:10.37,2013-02-12 13:15:00,
2013-02-12 14:20:00,49.7,36.8,29.77,NNW,328,21.9,21.9,61,0.00,CLR,,0.05,WeatherDisplay:10.37,2013-02-12 13:20:00,
2013-02-12 14:25:00,49.8,35.6,29.78,North,359,26.5,26.5,58,0.00,CLR,,0.05,WeatherDisplay:10.37,2013-02-12 13:25:00,
2013-02-12 14:30:00,49.7,33.7,29.77,NNW,343,26.5,26.5,54,0.00,CLR,,0.05,WeatherDisplay:10.37,2013-02-12 13:30:00,
2013-02-12 14:35:00,49.6,32.2,29.77,North,8,28.0,28.0,51,0.00,CLR,,0.05,WeatherDisplay:10.37,2013-02-12 13:35:00,
2013-02-12 14:40:00,49.4,32.0,29.78,North,354,24.2,24.2,51,0.00,CLR,,0.05,WeatherDisplay:10.37,2013-02-12 13:40:00,
2013-02-12 14:45:00,49.5,32.1,29.78,North,354,31.1,31.1,51,0.00,CLR,,0.05,WeatherDisplay:10.37,2013-02-12 13:45:00,
2013-02-12 14:50:00,49.8,33.3,29.78,North,354,25.3,25.3,53,0.00,CLR,,0.05,WeatherDisplay:10.37,2013-02-12 13:50:00,
2013-02-12 14:55:00,49.6,32.7,29.79,North,354,27.6,27.6,52,0.00,CLR,,0.05,WeatherDisplay:10.37,2013-02-12 13:55:00,
2013-02-12 15:00:00,49.6,33.6,29.79,NNW,332,26.5,26.5,54,0.00,CLR,,0.05,WeatherDisplay:10.37,2013-02-12 14:00:00,
2013-02-12 15:05:00,49.8,33.3,29.79,NNW,336,30.0,30.0,53,0.00,CLR,,0.05,WeatherDisplay:10.37,2013-02-12 14:05:00,
2013-02-12 15:10:00,49.7,33.7,29.79,North,354,26.5,26.5,54,0.00,CLR,,0.05,WeatherDisplay:10.37,2013-02-12 14:10:00,
2013-02-12 15:15:00,50.4,34.8,29.80,NNW,343,15.0,15.0,55,0.00,CLR,,0.05,WeatherDisplay:10.37,2013-02-12 14:15:00,
2013-02-12 15:20:00,49.9,34.4,29.80,NNW,343,25.3,25.3,55,0.00,CLR,,0.05,WeatherDisplay:10.37,2013-02-12 14:20:00,
2013-02-12 15:25:00,49.6,34.1,29.80,North,354,28.0,28.0,55,0.00,CLR,,0.05,WeatherDisplay:10.37,2013-02-12 14:25:00,
2013-02-12 15:30:00,49.9,34.4,29.80,North,8,31.0,31.0,55,0.00,CLR,,0.05,WeatherDisplay:10.37,2013-02-12 14:30:00,
2013-02-12 15:35:00,49.8,34.3,29.80,North,359,24.2,24.2,55,0.00,CLR,,0.05,WeatherDisplay:10.37,2013-02-12 14:35:00,
2013-02-12 15:40:00,50.2,33.7,29.80,WNW,296,23.0,23.0,53,0.00,CLR,,0.05,WeatherDisplay:10.37,2013-02-12 14:40:00,
2013-02-12 15:45:00,50.1,32.2,29.80,NNE,19,31.1,31.1,50,0.00,CLR,,0.05,WeatherDisplay:10.37,2013-02-12 14:45:00,
2013-02-12 15:50:00,50.2,33.2,29.80,NW,310,27.6,27.6,52,0.00,CLR,,0.05,WeatherDisplay:10.37,2013-02-12 14:50:00,
2013-02-12 15:55:00,50.7,34.2,29.80,North,4,21.9,21.9,53,0.00,CLR,,0.05,WeatherDisplay:10.37,2013-02-12 14:55:00,
2013-02-12 16:00:00,50.5,33.0,29.81,NE,35,21.9,21.9,51,0.00,CLR,,0.05,WeatherDisplay:10.37,2013-02-12 15:00:00,
2013-02-12 16:05:00,50.5,33.0,29.81,NNE,28,23.0,23.0,51,0.00,CLR,,0.05,WeatherDisplay:10.37,2013-02-12 15:05:00,
2013-02-12 16:10:00,50.6,33.6,29.82,North,10,19.6,19.6,52,0.00,CLR,,0.05,WeatherDisplay:10.37,2013-02-12 15:10:00,
2013-02-12 16:15:00,50.9,33.9,29.82,North,4,17.3,17.3,52,0.00,CLR,,0.05,WeatherDisplay:10.37,2013-02-12 15:15:00,
2013-02-12 16:20:00,51.2,34.2,29.82,NNE,12,17.3,17.3,52,0.00,CLR,,0.05,WeatherDisplay:10.37,2013-02-12 15:20:00,
2013-02-12 16:25:00,51.2,34.2,29.82,North,359,18.4,18.4,52,0.00,CLR,,0.05,WeatherDisplay:10.37,2013-02-12 15:25:00,
2013-02-12 16:30:00,50.9,33.9,29.82,NNE,14,17.3,17.3,52,0.00,CLR,,0.05,WeatherDisplay:10.37,2013-02-12 15:30:00,
2013-02-12 16:35:00,50.8,33.8,29.82,NW,325,17.3,17.3,52,0.00,CLR,,0.05,WeatherDisplay:10.37,2013-02-12 15:35:00,
2013-02-12 16:40:00,51.0,34.0,29.82,North,8,15.0,15.0,52,0.00,CLR,,0.05,WeatherDisplay:10.37,2013-02-12 15:40:00,
2013-02-12 16:45:00,51.0,34.0,29.82,NNE,14,14.0,14.0,52,0.00,CLR,,0.05,WeatherDisplay:10.37,2013-02-12 15:45:00,
2013-02-12 16:50:00,50.9,31.9,29.82,NNE,19,19.6,19.6,48,0.00,CLR,,0.05,WeatherDisplay:10.37,2013-02-12 15:50:00,
2013-02-12 16:55:00,50.9,32.4,29.83,NE,48,15.0,15.0,49,0.00,CLR,,0.05,WeatherDisplay:10.37,2013-02-12 15:55:00,
2013-02-12 17:00:00,50.9,33.4,29.83,NW,324,13.0,13.0,51,0.00,CLR,,0.05,WeatherDisplay:10.37,2013-02-12 16:00:00,
2013-02-12 17:05:00,50.8,31.3,29.83,North,354,16.1,16.1,47,0.00,CLR,,0.05,WeatherDisplay:10.37,2013-02-12 16:05:00,
2013-02-12 17:10:00,50.8,31.8,29.83,North,359,12.7,12.7,48,0.00,CLR,,0.05,WeatherDisplay:10.37,2013-02-12 16:10:00,
2013-02-12 17:15:00,51.0,32.5,29.83,NNW,334,5.8,5.8,49,0.00,CLR,,0.05,WeatherDisplay:10.37,2013-02-12 16:15:00,
2013-02-12 17:20:00,51.2,32.7,29.83,WNW,297,11.5,11.5,49,0.00,CLR,,0.05,WeatherDisplay:10.37,2013-02-12 16:20:00,
2013-02-12 17:25:00,51.2,32.7,29.84,NW,312,12.0,12.0,49,0.00,CLR,,0.05,WeatherDisplay:10.37,2013-02-12 16:25:00,
2013-02-12 17:30:00,51.2,32.7,29.84,NW,312,11.5,11.5,49,0.00,CLR,,0.05,WeatherDisplay:10.37,2013-02-12 16:30:00,
2013-02-12 17:35:00,51.3,32.8,29.84,West,262,10.4,10.4,49,0.00,CLR,,0.05,WeatherDisplay:10.37,2013-02-12 16:35:00,
2013-02-12 17:40:00,51.2,33.2,29.84,West,265,10.4,10.4,50,0.00,CLR,,0.05,WeatherDisplay:10.37,2013-02-12 16:40:00,
2013-02-12 17:45:00,51.0,33.5,29.84,WNW,301,17.3,17.3,51,0.00,CLR,,0.05,WeatherDisplay:10.37,2013-02-12 16:45:00,
2013-02-12 17:50:00,50.8,34.3,29.84,North,359,13.8,13.8,53,0.00,CLR,,0.05,WeatherDisplay:10.37,2013-02-12 16:50:00,
2013-02-12 17:55:00,50.4,34.4,29.84,West,274,16.1,16.1,54,0.00,CLR,,0.05,WeatherDisplay:10.37,2013-02-12 16:55:00,
2013-02-12 18:00:00,50.1,35.0,29.85,WNW,297,17.3,17.3,56,0.00,CLR,,0.05,WeatherDisplay:10.37,2013-02-12 17:00:00,
2013-02-12 18:05:00,49.7,35.1,29.84,WNW,283,19.6,19.6,57,0.00,CLR,,0.05,WeatherDisplay:10.37,2013-02-12 17:05:00,
2013-02-12 18:10:00,49.5,34.0,29.85,NW,321,12.7,12.7,55,0.00,CLR,,0.05,WeatherDisplay:10.37,2013-02-12 17:10:00,
2013-02-12 18:15:00,49.2,34.2,29.85,WNW,301,18.4,18.4,56,0.00,CLR,,0.05,WeatherDisplay:10.37,2013-02-12 17:15:00,
2013-02-12 18:20:00,48.9,34.3,29.85,WNW,283,16.1,16.1,57,0.00,CLR,,0.05,WeatherDisplay:10.37,2013-02-12 17:20:00,
2013-02-12 18:25:00,48.7,34.6,29.85,NNE,25,10.4,10.4,58,0.00,CLR,,0.05,WeatherDisplay:10.37,2013-02-12 17:25:00,
2013-02-12 18:30:00,48.5,34.8,29.85,West,276,12.7,12.7,59,0.00,CLR,,0.05,WeatherDisplay:10.37,2013-02-12 17:30:00,
2013-02-12 18:35:00,48.4,34.7,29.85,NW,324,11.5,11.5,59,0.00,CLR,,0.05,WeatherDisplay:10.37,2013-02-12 17:35:00,
2013-02-12 18:40:00,48.4,34.7,29.85,WSW,253,11.5,11.5,59,0.00,CLR,,0.05,WeatherDisplay:10.37,2013-02-12 17:40:00,
2013-02-12 18:45:00,48.3,35.0,29.86,NNE,26,11.5,11.5,60,0.00,CLR,,0.05,WeatherDisplay:10.37,2013-02-12 17:45:00,
2013-02-12 18:50:00,48.2,35.0,29.86,West,260,11.5,11.5,60,0.00,CLR,,0.05,WeatherDisplay:10.37,2013-02-12 17:50:00,
2013-02-12 18:55:00,48.0,34.8,29.86,North,359,11.5,11.5,60,0.00,CLR,,0.05,WeatherDisplay:10.37,2013-02-12 17:55:00,
2013-02-12 19:00:00,48.0,34.8,29.86,West,270,8.1,8.1,60,0.00,CLR,,0.05,WeatherDisplay:10.37,2013-02-12 18:00:00,
2013-02-12 19:05:00,47.8,34.6,29.86,West,276,10.4,10.4,60,0.00,CLR,,0.05,WeatherDisplay:10.37,2013-02-12 18:05:00,
2013-02-12 19:10:00,47.7,34.5,29.86,West,274,10.4,10.4,60,0.00,CLR,,0.05,WeatherDisplay:10.37,2013-02-12 18:10:00,
2013-02-12 19:15:00,47.8,34.6,29.87,West,276,11.5,11.5,60,0.00,CLR,,0.05,WeatherDisplay:10.37,2013-02-12 18:15:00,
2013-02-12 19:20:00,47.6,34.4,29.87,WNW,289,10.4,10.4,60,0.00,CLR,,0.05,WeatherDisplay:10.37,2013-02-12 18:20:00,
2013-02-12 19:25:00,47.4,34.6,29.87,West,280,11.5,11.5,61,0.00,CLR,,0.05,WeatherDisplay:10.37,2013-02-12 18:25:00,
2013-02-12 19:30:00,47.4,34.6,29.88,WNW,284,11.5,11.5,61,0.00,CLR,,0.05,WeatherDisplay:10.37,2013-02-12 18:30:00,
2013-02-12 19:35:00,47.2,34.4,29.88,WNW,293,11.5,11.5,61,0.00,CLR,,0.05,WeatherDisplay:10.37,2013-02-12 18:35:00,
2013-02-12 19:40:00,47.2,34.8,29.88,WNW,294,11.5,11.5,62,0.00,CLR,,0.05,WeatherDisplay:10.37,2013-02-12 18:40:00,
2013-02-12 19:45:00,47.1,34.7,29.88,NW,322,12.7,12.7,62,0.00,CLR,,0.05,WeatherDisplay:10.37,2013-02-12 18:45:00,
2013-02-12 19:50:00,47.1,35.1,29.88,WNW,296,11.0,11.0,63,0.00,CLR,,0.05,WeatherDisplay:10.37,2013-02-12 18:50:00,
2013-02-12 19:55:00,47.4,35.4,29.88,WNW,295,13.8,13.8,63,0.00,CLR,,0.05,WeatherDisplay:10.37,2013-02-12 18:55:00,
2013-02-12 20:00:00,47.4,35.4,29.88,West,260,16.1,16.1,63,0.00,CLR,,0.05,WeatherDisplay:10.37,2013-02-12 19:00:00,
2013-02-12 20:05:00,47.3,35.7,29.89,West,274,13.8,13.8,64,0.00,CLR,,0.05,WeatherDisplay:10.37,2013-02-12 19:05:00,
2013-02-12 20:10:00,47.4,35.4,29.88,NNE,15,11.5,11.5,63,0.00,CLR,,0.05,WeatherDisplay:10.37,2013-02-12 19:10:00,
2013-02-12 20:15:00,47.4,35.4,29.89,WNW,283,12.7,12.7,63,0.00,CLR,,0.05,WeatherDisplay:10.37,2013-02-12 19:15:00,
2013-02-12 20:20:00,47.2,35.6,29.89,WNW,284,10.4,10.4,64,0.00,CLR,,0.05,WeatherDisplay:10.37,2013-02-12 19:20:00,
2013-02-12 20:25:00,47.0,35.4,29.89,West,280,10.4,10.4,64,0.00,CLR,,0.05,WeatherDisplay:10.37,2013-02-12 19:25:00,
2013-02-12 20:30:00,46.6,35.5,29.89,West,278,11.5,11.5,65,0.00,CLR,,0.05,WeatherDisplay:10.37,2013-02-12 19:30:00,
2013-02-12 20:35:00,46.7,35.6,29.89,NW,311,12.7,12.7,65,0.00,CLR,,0.05,WeatherDisplay:10.37,2013-02-12 19:35:00,
2013-02-12 20:40:00,47.1,35.9,29.89,West,277,12.7,12.7,65,0.00,CLR,,0.05,WeatherDisplay:10.37,2013-02-12 19:40:00,
2013-02-12 20:45:00,47.5,35.9,29.89,West,278,15.0,15.0,64,0.00,CLR,,0.05,WeatherDisplay:10.37,2013-02-12 19:45:00,
2013-02-12 20:50:00,47.5,36.3,29.89,West,274,11.5,11.5,65,0.00,CLR,,0.05,WeatherDisplay:10.37,2013-02-12 19:50:00,
2013-02-12 20:55:00,47.7,36.5,29.90,WNW,287,17.3,17.3,65,0.00,CLR,,0.05,WeatherDisplay:10.37,2013-02-12 19:55:00,
2013-02-12 21:00:00,47.8,36.6,29.90,West,264,16.0,16.0,65,0.00,CLR,,0.05,WeatherDisplay:10.37,2013-02-12 20:00:00,
2013-02-12 21:05:00,47.6,36.4,29.90,North,4,15.0,15.0,65,0.00,CLR,,0.05,WeatherDisplay:10.37,2013-02-12 20:05:00,
2013-02-12 21:10:00,47.6,36.8,29.90,WNW,298,15.0,15.0,66,0.00,CLR,,0.05,WeatherDisplay:10.37,2013-02-12 20:10:00,
2013-02-12 21:15:00,47.7,36.9,29.91,North,8,15.0,15.0,66,0.00,CLR,,0.05,WeatherDisplay:10.37,2013-02-12 20:15:00,
2013-02-12 21:20:00,48.0,37.6,29.91,NW,308,19.6,19.6,67,0.00,CLR,,0.05,WeatherDisplay:10.37,2013-02-12 20:20:00,
2013-02-12 21:25:00,48.2,37.8,29.91,WNW,291,18.4,18.4,67,0.00,CLR,,0.05,WeatherDisplay:10.37,2013-02-12 20:25:00,
2013-02-12 21:30:00,48.3,37.8,29.91,NW,326,13.8,13.8,67,0.00,CLR,,0.05,WeatherDisplay:10.37,2013-02-12 20:30:00,
2013-02-12 21:35:00,48.2,37.8,29.91,WNW,289,18.4,18.4,67,0.00,CLR,,0.05,WeatherDisplay:10.37,2013-02-12 20:35:00,
2013-02-12 21:40:00,48.0,37.6,29.92,WNW,301,16.1,16.1,67,0.00,CLR,,0.05,WeatherDisplay:10.37,2013-02-12 20:40:00,
2013-02-12 21:45:00,48.1,37.7,29.92,West,275,16.1,16.1,67,0.00,CLR,,0.05,WeatherDisplay:10.37,2013-02-12 20:45:00,
2013-02-12 21:50:00,48.0,37.6,29.91,NW,305,15.0,15.0,67,0.00,CLR,,0.05,WeatherDisplay:10.37,2013-02-12 20:50:00,
2013-02-12 21:55:00,48.2,37.8,29.91,WNW,285,17.3,17.3,67,0.00,CLR,,0.05,WeatherDisplay:10.37,2013-02-12 20:55:00,
2013-02-12 22:00:00,48.2,37.8,29.91,WNW,292,13.8,13.8,67,0.00,CLR,,0.05,WeatherDisplay:10.37,2013-02-12 21:00:00,
2013-02-12 22:05:00,48.2,37.8,29.91,WNW,291,15.0,15.0,67,0.00,CLR,,0.05,WeatherDisplay:10.37,2013-02-12 21:05:00,
2013-02-12 22:10:00,48.2,37.8,29.91,NW,314,13.8,13.8,67,0.00,CLR,,0.05,WeatherDisplay:10.37,2013-02-12 21:10:00,
2013-02-12 22:15:00,48.2,37.8,29.92,WNW,291,12.7,12.7,67,0.00,CLR,,0.05,WeatherDisplay:10.37,2013-02-12 21:15:00,
2013-02-12 22:20:00,48.3,37.8,29.92,NW,318,13.8,13.8,67,0.00,CLR,,0.05,WeatherDisplay:10.37,2013-02-12 21:20:00,
2013-02-12 22:25:00,48.4,37.9,29.92,WSW,240,17.3,17.3,67,0.00,CLR,,0.05,WeatherDisplay:10.37,2013-02-12 21:25:00,
2013-02-12 22:30:00,48.7,38.2,29.92,SSW,212,19.6,19.6,67,0.00,CLR,,0.05,WeatherDisplay:10.37,2013-02-12 21:30:00,
2013-02-12 22:35:00,48.7,37.8,29.92,NW,311,13.8,13.8,66,0.00,CLR,,0.05,WeatherDisplay:10.37,2013-02-12 21:35:00,
2013-02-12 22:40:00,48.6,38.1,29.92,West,269,18.0,18.0,67,0.00,CLR,,0.05,WeatherDisplay:10.37,2013-02-12 21:40:00,
2013-02-12 22:45:00,47.9,37.5,29.92,West,280,11.5,11.5,67,0.00,CLR,,0.05,WeatherDisplay:10.37,2013-02-12 21:45:00,
2013-02-12 22:50:00,47.3,37.6,29.92,West,280,13.0,13.0,69,0.00,CLR,,0.05,WeatherDisplay:10.37,2013-02-12 21:50:00,
2013-02-12 22:55:00,47.3,37.6,29.92,West,262,11.5,11.5,69,0.00,CLR,,0.05,WeatherDisplay:10.37,2013-02-12 21:55:00,
2013-02-12 23:00:00,46.5,37.2,29.92,West,273,12.7,12.7,70,0.00,CLR,,0.05,WeatherDisplay:10.37,2013-02-12 22:00:00,
2013-02-12 23:05:00,46.9,37.6,29.92,NW,312,11.5,11.5,70,0.00,CLR,,0.05,WeatherDisplay:10.37,2013-02-12 22:05:00,
2013-02-12 23:10:00,46.8,37.9,29.92,NW,322,13.8,13.8,71,0.00,CLR,,0.05,WeatherDisplay:10.37,2013-02-12 22:10:00,
2013-02-12 23:15:00,46.8,37.9,29.92,WNW,291,12.7,12.7,71,0.00,CLR,,0.05,WeatherDisplay:10.37,2013-02-12 22:15:00,
2013-02-12 23:20:00,47.2,38.3,29.92,NNW,332,13.8,13.8,71,0.00,CLR,,0.05,WeatherDisplay:10.37,2013-02-12 22:20:00,
2013-02-12 23:25:00,47.4,38.1,29.92,WNW,291,16.1,16.1,70,0.00,CLR,,0.05,WeatherDisplay:10.37,2013-02-12 22:25:00,
2013-02-12 23:30:00,47.4,38.5,29.93,WNW,301,16.1,16.1,71,0.00,CLR,,0.05,WeatherDisplay:10.37,2013-02-12 22:30:00,
2013-02-12 23:35:00,47.9,38.6,29.93,West,280,16.1,16.1,70,0.00,CLR,,0.05,WeatherDisplay:10.37,2013-02-12 22:35:00,
2013-02-12 23:40:00,47.9,38.6,29.93,West,265,16.1,16.1,70,0.00,CLR,,0.05,WeatherDisplay:10.37,2013-02-12 22:40:00,
2013-02-12 23:45:00,47.4,38.5,29.93,WNW,285,13.8,13.8,71,0.00,CLR,,0.05,WeatherDisplay:10.37,2013-02-12 22:45:00,
2013-02-12 23:50:00,47.3,38.4,29.93,West,268,18.0,18.0,71,0.00,CLR,,0.05,WeatherDisplay:10.37,2013-02-12 22:50:00,
2013-02-12 23:55:00,47.8,38.8,29.93,West,278,17.0,17.0,71,0.00,CLR,,0.05,WeatherDisplay:10.37,2013-02-12 22:55:00,